Clayton, Ohio
Current Conditions -  °F | °C
As of 6:56 PM on Wednesday 22 Oct 2014 (Local Time) from KDAY Reporting Station
Overcast Overcast  
Wind Chill: 45°   Ceiling: 1900
Heat Index: 49°   Visibility: 10mi
Dew Point: 41°   Wind: 10mph
Humidity: 74%   Direction: 40°NE
Pressure: 30.28"   Gusts: NA
Location:  39.86°N, 84.36°W
Report Text: KDAY 222256Z 04009KT 10SM OVC019 09/05 A3028 RMK AO2 SLP259 T00940050
Loading
Personal Weather Stations






























Interactive Weather Map
Tropical Storm Tracking
New forecast layout! Learn more

10-Day Weather Forecast

Advertisements
Track Severe Weather on mobile